createdAt,value
2023-04-17T00:00:58.214Z,98198.25
2023-04-17T00:06:00.138Z,98190.41
2023-04-17T00:11:07.962Z,98191.66
2023-04-17T00:16:12.711Z,98192.09
2023-04-17T00:21:14.606Z,98188.31
2023-04-17T00:26:16.608Z,98191.88
2023-04-17T00:31:18.873Z,98184.69
2023-04-17T00:36:20.896Z,98181.06
2023-04-17T00:41:22.796Z,98184.75
2023-04-17T00:46:24.737Z,98183.78
2023-04-17T00:51:27.617Z,98186.16
2023-04-17T00:56:29.893Z,98181.22
2023-04-17T01:01:31.758Z,98185.47
2023-04-17T01:06:33.742Z,98184.00
2023-04-17T01:11:36.390Z,98183.63
2023-04-17T01:16:40.310Z,98184.56
2023-04-17T01:21:42.656Z,98188.66
2023-04-17T01:26:44.683Z,98185.09
2023-04-17T01:31:46.594Z,98181.97
2023-04-17T01:36:48.451Z,98184.59
2023-04-17T01:41:51.566Z,98190.38
2023-04-17T01:46:53.471Z,98195.25
2023-04-17T01:51:56.970Z,98199.47
2023-04-17T01:56:58.838Z,98200.13
2023-04-17T02:02:00.828Z,98197.53
2023-04-17T02:07:02.925Z,98199.31
2023-04-17T02:12:06.297Z,98201.25
2023-04-17T02:17:08.234Z,98200.72
2023-04-17T02:22:10.037Z,98201.66
2023-04-17T02:27:11.863Z,98204.25
2023-04-17T02:32:15.874Z,98201.81
2023-04-17T02:37:17.997Z,98210.00
2023-04-17T02:42:19.945Z,98206.72
2023-04-17T02:47:22.609Z,98207.13
2023-04-17T02:52:24.555Z,98209.03
2023-04-17T02:57:26.699Z,98209.59
2023-04-17T03:02:30.745Z,98213.06
2023-04-17T03:07:33.398Z,98209.38
2023-04-17T03:12:35.400Z,98205.03
2023-04-17T03:17:37.242Z,98207.34
2023-04-17T03:22:39.340Z,98204.38
2023-04-17T03:27:41.959Z,98208.44
2023-04-17T03:32:44.301Z,98213.06
2023-04-17T03:37:46.199Z,98211.81
2023-04-17T03:42:48.987Z,98215.06
2023-04-17T03:47:50.925Z,98215.63
2023-04-17T03:52:53.345Z,98215.72
2023-04-17T03:57:55.271Z,98217.88
2023-04-17T04:02:58.310Z,98218.47
2023-04-17T04:08:09.832Z,98219.31
2023-04-17T04:13:22.102Z,98228.56
2023-04-17T04:18:30.674Z,98232.94
2023-04-17T04:23:33.909Z,98231.28
2023-04-17T04:28:36.279Z,98238.75
2023-04-17T04:33:38.260Z,98239.44
2023-04-17T04:38:40.435Z,98235.06
2023-04-17T04:43:54.212Z,98242.31
2023-04-17T04:48:56.294Z,98245.97
2023-04-17T04:53:59.921Z,98245.56
2023-04-17T04:59:02.299Z,98250.56
2023-04-17T05:04:08.014Z,98250.47
2023-04-17T05:09:10.549Z,98268.41
2023-04-17T05:14:12.737Z,98258.75
2023-04-17T05:19:15.771Z,98267.28
2023-04-17T05:24:24.788Z,98281.84
2023-04-17T05:29:27.483Z,98278.44
2023-04-17T05:34:31.051Z,98278.03
2023-04-17T05:39:34.804Z,98274.53
2023-04-17T05:44:37.263Z,98279.41
2023-04-17T05:49:39.545Z,98283.63
2023-04-17T05:54:41.373Z,98283.22
2023-04-17T05:59:44.686Z,98285.88
2023-04-17T06:04:47.562Z,98283.03
2023-04-17T06:09:49.738Z,98285.06
2023-04-17T06:14:51.678Z,98291.75
2023-04-17T06:19:57.700Z,98285.75
2023-04-17T06:24:59.516Z,98287.16
2023-04-17T06:30:03.285Z,98295.44
2023-04-17T06:35:10.906Z,98300.59
2023-04-17T06:40:18.715Z,98298.19
2023-04-17T06:45:21.321Z,98306.72
2023-04-17T06:50:23.128Z,98305.25
2023-04-17T06:55:26.689Z,98309.84
2023-04-17T07:00:28.623Z,98316.81
2023-04-17T07:05:30.599Z,98315.44
2023-04-17T07:10:32.437Z,98326.47
2023-04-17T07:15:34.323Z,98331.22
2023-04-17T07:20:36.225Z,98333.97
2023-04-17T07:25:38.070Z,98342.38
2023-04-17T07:30:42.715Z,98342.09
2023-04-17T07:35:44.646Z,98352.00
2023-04-17T07:40:46.445Z,98349.13
2023-04-17T07:45:49.152Z,98363.38
2023-04-17T07:50:51.423Z,98361.94
2023-04-17T07:55:53.225Z,98361.16
2023-04-17T08:00:55.142Z,98366.97
2023-04-17T08:05:57.640Z,98366.44
2023-04-17T08:10:59.457Z,98377.16
2023-04-17T08:16:01.603Z,98378.75
2023-04-17T08:21:04.302Z,98377.59
2023-04-17T08:26:06.350Z,98381.34
2023-04-17T08:31:10.455Z,98386.88
2023-04-17T08:36:12.452Z,98390.28
2023-04-17T08:41:25.322Z,98394.81
2023-04-17T08:46:27.859Z,98395.06
2023-04-17T08:51:29.844Z,98399.66
2023-04-17T08:56:31.818Z,98396.41
2023-04-17T09:01:34.988Z,98400.41
2023-04-17T09:06:53.081Z,98411.78
2023-04-17T09:12:09.179Z,98424.06
2023-04-17T09:17:11.159Z,98416.25
2023-04-17T09:22:22.860Z,98420.78
2023-04-17T09:27:26.773Z,98412.03
2023-04-17T09:32:30.321Z,98423.34
2023-04-17T09:38:01.526Z,98427.59
2023-04-17T09:43:07.452Z,98434.25
2023-04-17T09:48:12.972Z,98432.28
2023-04-17T09:53:17.052Z,98443.16
2023-04-17T09:58:20.510Z,98437.97
2023-04-17T10:03:22.925Z,98438.47
2023-04-17T10:08:24.995Z,98438.66
2023-04-17T10:13:29.796Z,98448.06
2023-04-17T10:18:33.195Z,98434.69
2023-04-17T10:23:35.583Z,98438.50
2023-04-17T10:28:48.811Z,98441.66
2023-04-17T10:33:52.784Z,98446.81
2023-04-17T10:39:12.739Z,98437.75
2023-04-17T10:44:14.752Z,98442.66
2023-04-17T10:49:16.836Z,98436.53
2023-04-17T10:54:18.874Z,98435.16
2023-04-17T10:59:22.114Z,98441.50
2023-04-17T11:04:29.903Z,98440.13
2023-04-17T11:09:31.943Z,98441.25
2023-04-17T11:14:34.848Z,98441.34
2023-04-17T11:19:36.663Z,98434.94
2023-04-17T11:24:38.427Z,98452.66
2023-04-17T11:29:40.237Z,98448.09
2023-04-17T11:34:42.541Z,98451.81
2023-04-17T11:39:44.445Z,98450.78
2023-04-17T11:44:46.273Z,98452.47
2023-04-17T11:49:48.263Z,98449.19
2023-04-17T11:54:57.894Z,98454.75
2023-04-17T11:59:59.858Z,98454.75
2023-04-17T12:05:15.181Z,98461.94
2023-04-17T12:10:17.041Z,98460.47
2023-04-17T12:15:18.835Z,98463.91
2023-04-17T12:20:20.946Z,98472.94
2023-04-17T12:25:22.830Z,98470.91
2023-04-17T12:30:27.797Z,98477.59
2023-04-17T12:35:30.043Z,98476.44
2023-04-17T12:40:32.951Z,98477.94
2023-04-17T12:45:37.284Z,98467.78
2023-04-17T12:50:43.632Z,98470.72
2023-04-17T12:55:46.034Z,98471.13
2023-04-17T13:00:48.191Z,98468.78
2023-04-17T13:05:52.782Z,98467.59
2023-04-17T13:10:54.636Z,98468.06
2023-04-17T13:15:56.441Z,98471.13
2023-04-17T13:20:58.287Z,98466.56
2023-04-17T13:26:00.356Z,98473.50
2023-04-17T13:31:02.169Z,98462.22
2023-04-17T13:36:04.220Z,98475.44
2023-04-17T13:41:06.140Z,98474.16
2023-04-17T13:46:09.293Z,98470.22
2023-04-17T13:51:11.708Z,98474.69
2023-04-17T13:56:13.701Z,98470.84
2023-04-17T14:01:15.508Z,98466.09
2023-04-17T14:06:19.989Z,98469.78
2023-04-17T14:11:22.633Z,98470.91
2023-04-17T14:16:24.667Z,98471.03
2023-04-17T14:21:27.739Z,98473.00
2023-04-17T14:26:30.115Z,98469.94
2023-04-17T14:31:32.070Z,98469.44
2023-04-17T14:36:35.428Z,98463.25
2023-04-17T14:41:37.283Z,98464.50
2023-04-17T14:46:39.300Z,98455.13
2023-04-17T14:51:41.186Z,98466.19
2023-04-17T14:56:43.045Z,98473.31
2023-04-17T15:01:44.968Z,98471.94
2023-04-17T15:06:47.211Z,98470.59
2023-04-17T15:11:49.039Z,98472.88
2023-04-17T15:16:50.873Z,98472.22
2023-04-17T15:21:53.056Z,98479.59
2023-04-17T15:26:54.854Z,98488.75
2023-04-17T15:31:56.698Z,98488.59
2023-04-17T15:36:58.528Z,98490.06
2023-04-17T15:42:01.130Z,98489.41
2023-04-17T15:47:03.486Z,98493.78
2023-04-17T15:52:06.893Z,98484.13
2023-04-17T15:57:08.904Z,98500.75
2023-04-17T16:02:12.931Z,98501.44
2023-04-17T16:07:16.528Z,98503.09
2023-04-17T16:12:18.355Z,98506.06
2023-04-17T16:17:20.224Z,98503.75
2023-04-17T16:22:22.057Z,98509.88
2023-04-17T16:27:24.168Z,98505.13
2023-04-17T16:32:27.840Z,98504.44
2023-04-17T16:37:29.642Z,98502.91
2023-04-17T16:42:32.614Z,98511.63
2023-04-17T16:47:34.757Z,98510.06
2023-04-17T16:52:36.703Z,98514.47
2023-04-17T16:57:40.647Z,98510.13
2023-04-17T17:02:42.558Z,98530.19
2023-04-17T17:07:44.527Z,98522.56
2023-04-17T17:12:46.600Z,98529.22
2023-04-17T17:17:48.593Z,98527.84
2023-04-17T17:22:50.486Z,98536.72
2023-04-17T17:27:52.360Z,98529.94
2023-04-17T17:32:54.260Z,98525.56
2023-04-17T17:37:56.115Z,98531.81
2023-04-17T17:42:58.017Z,98531.38
2023-04-17T17:47:59.846Z,98524.97
2023-04-17T17:53:02.231Z,98533.00
2023-04-17T17:58:09.074Z,98541.44
2023-04-17T18:03:11.142Z,98543.03
2023-04-17T18:08:13.884Z,98543.03
2023-04-17T18:13:15.715Z,98543.81
2023-04-17T18:18:18.035Z,98549.38
2023-04-17T18:23:19.968Z,98549.53
2023-04-17T18:28:21.830Z,98543.41
2023-04-17T18:33:23.797Z,98546.47
2023-04-17T18:38:25.706Z,98551.75
2023-04-17T18:43:28.555Z,98555.16
2023-04-17T18:48:30.832Z,98556.94
2023-04-17T18:53:32.709Z,98560.03
2023-04-17T18:58:34.634Z,98561.25
2023-04-17T19:03:37.786Z,98565.31
2023-04-17T19:08:39.715Z,98572.34
2023-04-17T19:13:42.670Z,98569.34
2023-04-17T19:18:44.606Z,98573.81
2023-04-17T19:23:47.529Z,98566.88
2023-04-17T19:28:49.508Z,98565.25
2023-04-17T19:33:53.103Z,98564.53
2023-04-17T19:38:55.902Z,98566.31
2023-04-17T19:43:57.784Z,98571.03
2023-04-17T19:48:59.686Z,98570.63
2023-04-17T19:54:01.600Z,98561.38
2023-04-17T19:59:04.639Z,98566.53
2023-04-17T20:04:06.615Z,98563.38
2023-04-17T20:09:08.925Z,98564.19
2023-04-17T20:14:14.612Z,98565.16
2023-04-17T20:19:19.101Z,98566.25
2023-04-17T20:24:21.011Z,98558.34
2023-04-17T20:29:23.037Z,98557.41
2023-04-17T20:34:26.724Z,98562.00
2023-04-17T20:39:29.316Z,98566.47
2023-04-17T20:44:32.280Z,98566.47
2023-04-17T20:49:34.277Z,98562.50
2023-04-17T20:54:36.109Z,98564.38
2023-04-17T20:59:37.930Z,98571.31
2023-04-17T21:04:39.767Z,98550.09
2023-04-17T21:09:41.599Z,98567.47
2023-04-17T21:14:43.528Z,98568.56
2023-04-17T21:19:46.104Z,98565.03
2023-04-17T21:24:47.880Z,98571.97
2023-04-17T21:29:49.829Z,98565.50
2023-04-17T21:34:51.670Z,98568.09
2023-04-17T21:39:54.645Z,98562.13
2023-04-17T21:44:56.500Z,98560.72
2023-04-17T21:50:00.312Z,98557.41
2023-04-17T21:55:07.717Z,98563.78
2023-04-17T22:00:12.565Z,98565.28
2023-04-17T22:05:14.471Z,98561.75
2023-04-17T22:10:16.309Z,98559.16
2023-04-17T22:15:18.228Z,98563.41
2023-04-17T22:20:20.428Z,98562.56
2023-04-17T22:25:22.402Z,98557.22
2023-04-17T22:30:25.593Z,98552.59
2023-04-17T22:35:27.529Z,98558.84
2023-04-17T22:40:30.223Z,98558.84
2023-04-17T22:45:32.121Z,98551.50
2023-04-17T22:50:34.297Z,98557.22
2023-04-17T22:55:36.213Z,98555.69
2023-04-17T23:00:38.104Z,98559.75
2023-04-17T23:05:39.898Z,98553.69
2023-04-17T23:10:41.771Z,98557.47
2023-04-17T23:15:43.586Z,98551.03
2023-04-17T23:20:45.891Z,98557.53
2023-04-17T23:25:47.673Z,98560.94
2023-04-17T23:30:49.555Z,98552.22
2023-04-17T23:35:51.355Z,98550.03
2023-04-17T23:40:53.163Z,98548.16
2023-04-17T23:45:55.100Z,98540.28
2023-04-17T23:50:57.125Z,98540.78
2023-04-17T23:55:58.907Z,98548.91
